sensor_id;sensor_type;location;lat;lon;timestamp;temperature;humidity
84432;DHT22;74658;51.736;7.038;2023-12-28T00:01:52;7.6;
84432;DHT22;74658;51.736;7.038;2023-12-28T00:06:52;7.6;
84432;DHT22;74658;51.736;7.038;2023-12-28T00:11:54;7.6;
84432;DHT22;74658;51.736;7.038;2023-12-28T00:16:54;7.7;
84432;DHT22;74658;51.736;7.038;2023-12-28T00:21:54;7.8;
84432;DHT22;74658;51.736;7.038;2023-12-28T00:26:55;7.9;
84432;DHT22;74658;51.736;7.038;2023-12-28T00:31:55;8.1;
84432;DHT22;74658;51.736;7.038;2023-12-28T00:36:58;8.1;
84432;DHT22;74658;51.736;7.038;2023-12-28T00:41:56;8.3;
84432;DHT22;74658;51.736;7.038;2023-12-28T00:46:57;8.4;
84432;DHT22;74658;51.736;7.038;2023-12-28T00:51:58;8.5;
84432;DHT22;74658;51.736;7.038;2023-12-28T00:57:02;8.8;
84432;DHT22;74658;51.736;7.038;2023-12-28T01:01:59;8.8;
84432;DHT22;74658;51.736;7.038;2023-12-28T01:06:59;8.8;
84432;DHT22;74658;51.736;7.038;2023-12-28T01:12:00;9;
84432;DHT22;74658;51.736;7.038;2023-12-28T01:17:01;9.1;
84432;DHT22;74658;51.736;7.038;2023-12-28T01:22:01;9.2;
84432;DHT22;74658;51.736;7.038;2023-12-28T01:27:02;9.3;
84432;DHT22;74658;51.736;7.038;2023-12-28T01:32:03;9.2;
84432;DHT22;74658;51.736;7.038;2023-12-28T01:37:03;9.4;
84432;DHT22;74658;51.736;7.038;2023-12-28T01:42:04;9.3;
84432;DHT22;74658;51.736;7.038;2023-12-28T01:47:05;9.4;
84432;DHT22;74658;51.736;7.038;2023-12-28T01:52:06;9.4;
84432;DHT22;74658;51.736;7.038;2023-12-28T01:57:06;9.4;
84432;DHT22;74658;51.736;7.038;2023-12-28T02:02:06;9.3;
84432;DHT22;74658;51.736;7.038;2023-12-28T02:07:08;9.3;
84432;DHT22;74658;51.736;7.038;2023-12-28T02:12:08;9.3;
84432;DHT22;74658;51.736;7.038;2023-12-28T02:17:13;9.4;
84432;DHT22;74658;51.736;7.038;2023-12-28T02:22:10;9.3;
84432;DHT22;74658;51.736;7.038;2023-12-28T02:27:09;9.4;
84432;DHT22;74658;51.736;7.038;2023-12-28T02:32:11;9.4;
84432;DHT22;74658;51.736;7.038;2023-12-28T02:37:12;9.5;
84432;DHT22;74658;51.736;7.038;2023-12-28T02:42:17;9.5;
84432;DHT22;74658;51.736;7.038;2023-12-28T02:47:12;9.5;
84432;DHT22;74658;51.736;7.038;2023-12-28T02:52:12;9.5;
84432;DHT22;74658;51.736;7.038;2023-12-28T02:57:13;9.6;
84432;DHT22;74658;51.736;7.038;2023-12-28T03:02:13;9.5;
84432;DHT22;74658;51.736;7.038;2023-12-28T03:07:14;9.5;
84432;DHT22;74658;51.736;7.038;2023-12-28T03:12:15;9.5;
84432;DHT22;74658;51.736;7.038;2023-12-28T03:17:16;9.6;
84432;DHT22;74658;51.736;7.038;2023-12-28T03:22:16;9.5;
84432;DHT22;74658;51.736;7.038;2023-12-28T03:27:22;9.5;
84432;DHT22;74658;51.736;7.038;2023-12-28T03:32:17;9.6;
84432;DHT22;74658;51.736;7.038;2023-12-28T03:37:18;9.6;
84432;DHT22;74658;51.736;7.038;2023-12-28T03:42:18;9.6;
84432;DHT22;74658;51.736;7.038;2023-12-28T03:47:19;9.5;
84432;DHT22;74658;51.736;7.038;2023-12-28T03:52:20;9.5;
84432;DHT22;74658;51.736;7.038;2023-12-28T03:57:20;9.6;
84432;DHT22;74658;51.736;7.038;2023-12-28T04:02:21;9.5;
84432;DHT22;74658;51.736;7.038;2023-12-28T04:07:21;9.6;
84432;DHT22;74658;51.736;7.038;2023-12-28T04:12:22;9.7;
84432;DHT22;74658;51.736;7.038;2023-12-28T04:17:23;9.7;
84432;DHT22;74658;51.736;7.038;2023-12-28T04:22:23;9.8;
84432;DHT22;74658;51.736;7.038;2023-12-28T04:27:24;9.8;
84432;DHT22;74658;51.736;7.038;2023-12-28T04:32:25;10;
84432;DHT22;74658;51.736;7.038;2023-12-28T04:37:25;10.1;
84432;DHT22;74658;51.736;7.038;2023-12-28T04:42:26;10;
84432;DHT22;74658;51.736;7.038;2023-12-28T04:47:26;9.9;
84432;DHT22;74658;51.736;7.038;2023-12-28T04:52:27;10;
84432;DHT22;74658;51.736;7.038;2023-12-28T04:57:27;9.9;
84432;DHT22;74658;51.736;7.038;2023-12-28T05:02:28;9.9;
84432;DHT22;74658;51.736;7.038;2023-12-28T05:07:29;9.8;
84432;DHT22;74658;51.736;7.038;2023-12-28T05:12:29;9.9;
84432;DHT22;74658;51.736;7.038;2023-12-28T05:17:30;9.9;
84432;DHT22;74658;51.736;7.038;2023-12-28T05:22:31;9.8;
84432;DHT22;74658;51.736;7.038;2023-12-28T05:27:31;9.7;
84432;DHT22;74658;51.736;7.038;2023-12-28T05:32:32;9.9;
84432;DHT22;74658;51.736;7.038;2023-12-28T05:37:32;9.9;
84432;DHT22;74658;51.736;7.038;2023-12-28T05:42:33;9.9;
84432;DHT22;74658;51.736;7.038;2023-12-28T05:47:34;10;
84432;DHT22;74658;51.736;7.038;2023-12-28T05:52:34;10.1;
84432;DHT22;74658;51.736;7.038;2023-12-28T05:57:35;10;
84432;DHT22;74658;51.736;7.038;2023-12-28T06:02:35;10.1;
84432;DHT22;74658;51.736;7.038;2023-12-28T06:07:36;10.1;
84432;DHT22;74658;51.736;7.038;2023-12-28T06:12:37;10.1;
84432;DHT22;74658;51.736;7.038;2023-12-28T06:17:37;10.2;
84432;DHT22;74658;51.736;7.038;2023-12-28T06:22:38;10.2;
84432;DHT22;74658;51.736;7.038;2023-12-28T06:27:39;10.2;
84432;DHT22;74658;51.736;7.038;2023-12-28T06:32:39;10.3;
84432;DHT22;74658;51.736;7.038;2023-12-28T06:37:41;10.3;
84432;DHT22;74658;51.736;7.038;2023-12-28T06:42:40;10.2;
84432;DHT22;74658;51.736;7.038;2023-12-28T06:47:41;10.2;
84432;DHT22;74658;51.736;7.038;2023-12-28T06:52:42;10.1;
84432;DHT22;74658;51.736;7.038;2023-12-28T06:57:42;10.2;
84432;DHT22;74658;51.736;7.038;2023-12-28T07:02:48;10.2;
84432;DHT22;74658;51.736;7.038;2023-12-28T07:07:43;10.2;
84432;DHT22;74658;51.736;7.038;2023-12-28T07:12:44;10.2;
84432;DHT22;74658;51.736;7.038;2023-12-28T07:17:45;10.2;
84432;DHT22;74658;51.736;7.038;2023-12-28T07:22:45;10.2;
84432;DHT22;74658;51.736;7.038;2023-12-28T07:27:46;10.2;
84432;DHT22;74658;51.736;7.038;2023-12-28T07:32:46;10.3;
84432;DHT22;74658;51.736;7.038;2023-12-28T07:37:47;10.3;
84432;DHT22;74658;51.736;7.038;2023-12-28T07:42:48;10.3;
84432;DHT22;74658;51.736;7.038;2023-12-28T07:47:49;10.3;
84432;DHT22;74658;51.736;7.038;2023-12-28T07:52:50;10.4;
84432;DHT22;74658;51.736;7.038;2023-12-28T07:57:49;10.3;
84432;DHT22;74658;51.736;7.038;2023-12-28T08:02:50;10.3;
84432;DHT22;74658;51.736;7.038;2023-12-28T08:07:51;10.3;
84432;DHT22;74658;51.736;7.038;2023-12-28T08:12:51;10.4;
84432;DHT22;74658;51.736;7.038;2023-12-28T08:17:52;10.5;
84432;DHT22;74658;51.736;7.038;2023-12-28T08:22:53;10.5;
84432;DHT22;74658;51.736;7.038;2023-12-28T08:27:53;10.5;
84432;DHT22;74658;51.736;7.038;2023-12-28T08:32:54;10.5;
84432;DHT22;74658;51.736;7.038;2023-12-28T08:37:54;10.6;
84432;DHT22;74658;51.736;7.038;2023-12-28T08:42:55;10.6;
84432;DHT22;74658;51.736;7.038;2023-12-28T08:47:56;10.5;
84432;DHT22;74658;51.736;7.038;2023-12-28T08:52:56;10.6;
84432;DHT22;74658;51.736;7.038;2023-12-28T08:57:57;10.7;
84432;DHT22;74658;51.736;7.038;2023-12-28T09:02:58;10.7;
84432;DHT22;74658;51.736;7.038;2023-12-28T09:07:58;10.7;
84432;DHT22;74658;51.736;7.038;2023-12-28T09:12:59;10.7;
84432;DHT22;74658;51.736;7.038;2023-12-28T09:17:59;10.7;
84432;DHT22;74658;51.736;7.038;2023-12-28T09:23:00;10.8;
84432;DHT22;74658;51.736;7.038;2023-12-28T09:28:01;10.9;
84432;DHT22;74658;51.736;7.038;2023-12-28T09:33:01;10.9;
84432;DHT22;74658;51.736;7.038;2023-12-28T09:38:02;11;
84432;DHT22;74658;51.736;7.038;2023-12-28T09:43:13;11;
84432;DHT22;74658;51.736;7.038;2023-12-28T09:48:04;11;
84432;DHT22;74658;51.736;7.038;2023-12-28T09:53:14;11;
84432;DHT22;74658;51.736;7.038;2023-12-28T09:58:05;10.9;
84432;DHT22;74658;51.736;7.038;2023-12-28T10:03:06;10.9;
84432;DHT22;74658;51.736;7.038;2023-12-28T10:08:06;10.9;
84432;DHT22;74658;51.736;7.038;2023-12-28T10:13:06;10.9;
84432;DHT22;74658;51.736;7.038;2023-12-28T10:18:07;10.9;
84432;DHT22;74658;51.736;7.038;2023-12-28T10:23:08;10.8;
84432;DHT22;74658;51.736;7.038;2023-12-28T10:28:09;10.8;
84432;DHT22;74658;51.736;7.038;2023-12-28T10:33:09;10.8;
84432;DHT22;74658;51.736;7.038;2023-12-28T10:38:10;10.8;
84432;DHT22;74658;51.736;7.038;2023-12-28T10:43:13;10.8;
84432;DHT22;74658;51.736;7.038;2023-12-28T10:48:11;10.8;
84432;DHT22;74658;51.736;7.038;2023-12-28T10:53:21;10.9;
84432;DHT22;74658;51.736;7.038;2023-12-28T10:58:17;11;
84432;DHT22;74658;51.736;7.038;2023-12-28T11:03:17;11;
84432;DHT22;74658;51.736;7.038;2023-12-28T11:08:13;11;
84432;DHT22;74658;51.736;7.038;2023-12-28T11:13:14;11;
84432;DHT22;74658;51.736;7.038;2023-12-28T11:18:15;11;
84432;DHT22;74658;51.736;7.038;2023-12-28T11:23:15;11;
84432;DHT22;74658;51.736;7.038;2023-12-28T11:28:15;11.1;
84432;DHT22;74658;51.736;7.038;2023-12-28T11:33:17;11.2;
84432;DHT22;74658;51.736;7.038;2023-12-28T11:38:17;11.2;
84432;DHT22;74658;51.736;7.038;2023-12-28T11:43:18;11.3;
84432;DHT22;74658;51.736;7.038;2023-12-28T11:48:26;11.3;
84432;DHT22;74658;51.736;7.038;2023-12-28T11:53:19;11.3;
84432;DHT22;74658;51.736;7.038;2023-12-28T11:58:19;11.4;
84432;DHT22;74658;51.736;7.038;2023-12-28T12:03:19;11.3;
84432;DHT22;74658;51.736;7.038;2023-12-28T12:08:20;11.5;
84432;DHT22;74658;51.736;7.038;2023-12-28T12:13:21;11.4;
84432;DHT22;74658;51.736;7.038;2023-12-28T12:18:21;11.5;
84432;DHT22;74658;51.736;7.038;2023-12-28T12:23:22;11.8;
84432;DHT22;74658;51.736;7.038;2023-12-28T12:28:23;11.8;
84432;DHT22;74658;51.736;7.038;2023-12-28T12:33:24;12;
84432;DHT22;74658;51.736;7.038;2023-12-28T12:38:24;11.7;
84432;DHT22;74658;51.736;7.038;2023-12-28T12:43:24;11.6;
84432;DHT22;74658;51.736;7.038;2023-12-28T12:48:25;11.5;
84432;DHT22;74658;51.736;7.038;2023-12-28T12:53:32;11.4;
84432;DHT22;74658;51.736;7.038;2023-12-28T12:58:26;11.4;
84432;DHT22;74658;51.736;7.038;2023-12-28T13:03:27;11.4;
84432;DHT22;74658;51.736;7.038;2023-12-28T13:08:28;11.3;
84432;DHT22;74658;51.736;7.038;2023-12-28T13:13:28;11.4;
84432;DHT22;74658;51.736;7.038;2023-12-28T13:18:29;11.4;
84432;DHT22;74658;51.736;7.038;2023-12-28T13:23:29;11.3;
84432;DHT22;74658;51.736;7.038;2023-12-28T13:28:30;11.3;
84432;DHT22;74658;51.736;7.038;2023-12-28T13:33:30;11.3;
84432;DHT22;74658;51.736;7.038;2023-12-28T13:38:31;11.3;
84432;DHT22;74658;51.736;7.038;2023-12-28T13:43:32;11.3;
84432;DHT22;74658;51.736;7.038;2023-12-28T13:48:32;11.3;
84432;DHT22;74658;51.736;7.038;2023-12-28T13:53:33;11.3;
84432;DHT22;74658;51.736;7.038;2023-12-28T13:58:34;11.3;
84432;DHT22;74658;51.736;7.038;2023-12-28T14:03:34;11.3;
84432;DHT22;74658;51.736;7.038;2023-12-28T14:08:35;11.3;
84432;DHT22;74658;51.736;7.038;2023-12-28T14:13:36;11.2;
84432;DHT22;74658;51.736;7.038;2023-12-28T14:18:36;11.3;
84432;DHT22;74658;51.736;7.038;2023-12-28T14:23:37;11.3;
84432;DHT22;74658;51.736;7.038;2023-12-28T14:28:38;11.3;
84432;DHT22;74658;51.736;7.038;2023-12-28T14:33:38;11.2;
84432;DHT22;74658;51.736;7.038;2023-12-28T14:38:39;11.2;
84432;DHT22;74658;51.736;7.038;2023-12-28T14:43:39;11.2;
84432;DHT22;74658;51.736;7.038;2023-12-28T14:48:40;11.2;
84432;DHT22;74658;51.736;7.038;2023-12-28T14:53:40;11.2;
84432;DHT22;74658;51.736;7.038;2023-12-28T14:58:41;11.1;
84432;DHT22;74658;51.736;7.038;2023-12-28T15:03:42;11.1;
84432;DHT22;74658;51.736;7.038;2023-12-28T15:08:42;11.1;
84432;DHT22;74658;51.736;7.038;2023-12-28T15:13:43;11;
84432;DHT22;74658;51.736;7.038;2023-12-28T15:18:44;11;
84432;DHT22;74658;51.736;7.038;2023-12-28T15:23:45;10.9;
84432;DHT22;74658;51.736;7.038;2023-12-28T15:28:46;10.9;
84432;DHT22;74658;51.736;7.038;2023-12-28T15:33:45;11;
84432;DHT22;74658;51.736;7.038;2023-12-28T15:38:46;11;
84432;DHT22;74658;51.736;7.038;2023-12-28T15:43:47;11;
84432;DHT22;74658;51.736;7.038;2023-12-28T15:48:47;11;
84432;DHT22;74658;51.736;7.038;2023-12-28T15:53:48;10.9;
84432;DHT22;74658;51.736;7.038;2023-12-28T15:58:48;10.8;
84432;DHT22;74658;51.736;7.038;2023-12-28T16:03:49;10.9;
84432;DHT22;74658;51.736;7.038;2023-12-28T16:08:50;10.9;
84432;DHT22;74658;51.736;7.038;2023-12-28T16:13:51;11;
84432;DHT22;74658;51.736;7.038;2023-12-28T16:18:51;10.9;
84432;DHT22;74658;51.736;7.038;2023-12-28T16:23:52;10.9;
84432;DHT22;74658;51.736;7.038;2023-12-28T16:28:52;10.9;
84432;DHT22;74658;51.736;7.038;2023-12-28T16:33:53;10.9;
84432;DHT22;74658;51.736;7.038;2023-12-28T16:38:53;10.9;
84432;DHT22;74658;51.736;7.038;2023-12-28T16:43:55;10.9;
84432;DHT22;74658;51.736;7.038;2023-12-28T16:48:55;10.9;
84432;DHT22;74658;51.736;7.038;2023-12-28T16:53:55;10.9;
84432;DHT22;74658;51.736;7.038;2023-12-28T16:58:56;10.9;
84432;DHT22;74658;51.736;7.038;2023-12-28T17:03:56;10.8;
84432;DHT22;74658;51.736;7.038;2023-12-28T17:08:57;10.8;
84432;DHT22;74658;51.736;7.038;2023-12-28T17:13:58;10.8;
84432;DHT22;74658;51.736;7.038;2023-12-28T17:18:59;10.8;
84432;DHT22;74658;51.736;7.038;2023-12-28T17:24:00;10.9;
84432;DHT22;74658;51.736;7.038;2023-12-28T17:29:03;10.9;
84432;DHT22;74658;51.736;7.038;2023-12-28T17:34:01;10.9;
84432;DHT22;74658;51.736;7.038;2023-12-28T17:39:03;10.9;
84432;DHT22;74658;51.736;7.038;2023-12-28T17:44:05;10.8;
84432;DHT22;74658;51.736;7.038;2023-12-28T17:49:03;10.8;
84432;DHT22;74658;51.736;7.038;2023-12-28T17:54:03;10.8;
84432;DHT22;74658;51.736;7.038;2023-12-28T17:59:03;10.8;
84432;DHT22;74658;51.736;7.038;2023-12-28T18:04:04;10.7;
84432;DHT22;74658;51.736;7.038;2023-12-28T18:09:04;10.7;
84432;DHT22;74658;51.736;7.038;2023-12-28T18:14:05;10.7;
84432;DHT22;74658;51.736;7.038;2023-12-28T18:19:06;10.6;
84432;DHT22;74658;51.736;7.038;2023-12-28T18:24:07;10.6;
84432;DHT22;74658;51.736;7.038;2023-12-28T18:29:07;10.5;
84432;DHT22;74658;51.736;7.038;2023-12-28T18:34:08;10.6;
84432;DHT22;74658;51.736;7.038;2023-12-28T18:39:08;10.6;
84432;DHT22;74658;51.736;7.038;2023-12-28T18:44:09;10.6;
84432;DHT22;74658;51.736;7.038;2023-12-28T18:49:09;10.6;
84432;DHT22;74658;51.736;7.038;2023-12-28T18:54:10;10.6;
84432;DHT22;74658;51.736;7.038;2023-12-28T18:59:10;10.7;
84432;DHT22;74658;51.736;7.038;2023-12-28T19:04:11;10.7;
84432;DHT22;74658;51.736;7.038;2023-12-28T19:09:12;10.7;
84432;DHT22;74658;51.736;7.038;2023-12-28T19:14:12;10.7;
84432;DHT22;74658;51.736;7.038;2023-12-28T19:19:13;10.7;
84432;DHT22;74658;51.736;7.038;2023-12-28T19:24:14;10.6;
84432;DHT22;74658;51.736;7.038;2023-12-28T19:29:14;10.6;
84432;DHT22;74658;51.736;7.038;2023-12-28T19:34:15;10.5;
84432;DHT22;74658;51.736;7.038;2023-12-28T19:39:16;10.5;
84432;DHT22;74658;51.736;7.038;2023-12-28T19:44:17;10.5;
84432;DHT22;74658;51.736;7.038;2023-12-28T19:49:17;10.5;
84432;DHT22;74658;51.736;7.038;2023-12-28T19:54:17;10.6;
84432;DHT22;74658;51.736;7.038;2023-12-28T19:59:18;10.5;
84432;DHT22;74658;51.736;7.038;2023-12-28T20:04:19;10.5;
84432;DHT22;74658;51.736;7.038;2023-12-28T20:09:19;10.5;
84432;DHT22;74658;51.736;7.038;2023-12-28T20:14:20;10.6;
84432;DHT22;74658;51.736;7.038;2023-12-28T20:19:21;10.5;
84432;DHT22;74658;51.736;7.038;2023-12-28T20:24:21;10.5;
84432;DHT22;74658;51.736;7.038;2023-12-28T20:29:22;10.5;
84432;DHT22;74658;51.736;7.038;2023-12-28T20:34:22;10.5;
84432;DHT22;74658;51.736;7.038;2023-12-28T20:39:23;10.5;
84432;DHT22;74658;51.736;7.038;2023-12-28T20:44:24;10.5;
84432;DHT22;74658;51.736;7.038;2023-12-28T20:49:24;10.5;
84432;DHT22;74658;51.736;7.038;2023-12-28T20:54:25;10.5;
84432;DHT22;74658;51.736;7.038;2023-12-28T20:59:25;10.5;
84432;DHT22;74658;51.736;7.038;2023-12-28T21:04:26;10.4;
84432;DHT22;74658;51.736;7.038;2023-12-28T21:09:27;10.5;
84432;DHT22;74658;51.736;7.038;2023-12-28T21:14:27;10.5;
84432;DHT22;74658;51.736;7.038;2023-12-28T21:19:28;10.4;
84432;DHT22;74658;51.736;7.038;2023-12-28T21:24:28;10.5;
84432;DHT22;74658;51.736;7.038;2023-12-28T21:29:29;10.4;
84432;DHT22;74658;51.736;7.038;2023-12-28T21:34:30;10.4;
84432;DHT22;74658;51.736;7.038;2023-12-28T21:39:30;10.4;
84432;DHT22;74658;51.736;7.038;2023-12-28T21:44:31;10.4;
84432;DHT22;74658;51.736;7.038;2023-12-28T21:49:31;10.4;
84432;DHT22;74658;51.736;7.038;2023-12-28T21:54:32;10.4;
84432;DHT22;74658;51.736;7.038;2023-12-28T21:59:33;10.4;
84432;DHT22;74658;51.736;7.038;2023-12-28T22:04:33;10.3;
84432;DHT22;74658;51.736;7.038;2023-12-28T22:09:36;10.3;
84432;DHT22;74658;51.736;7.038;2023-12-28T22:14:35;10.3;
84432;DHT22;74658;51.736;7.038;2023-12-28T22:19:35;10.3;
84432;DHT22;74658;51.736;7.038;2023-12-28T22:24:36;10.3;
84432;DHT22;74658;51.736;7.038;2023-12-28T22:29:36;10.3;
84432;DHT22;74658;51.736;7.038;2023-12-28T22:34:37;10.4;
84432;DHT22;74658;51.736;7.038;2023-12-28T22:39:38;10.4;
84432;DHT22;74658;51.736;7.038;2023-12-28T22:44:38;10.4;
84432;DHT22;74658;51.736;7.038;2023-12-28T22:49:39;10.4;
84432;DHT22;74658;51.736;7.038;2023-12-28T22:54:39;10.4;
84432;DHT22;74658;51.736;7.038;2023-12-28T22:59:41;10.4;
84432;DHT22;74658;51.736;7.038;2023-12-28T23:04:42;10.4;
84432;DHT22;74658;51.736;7.038;2023-12-28T23:09:41;10.5;
84432;DHT22;74658;51.736;7.038;2023-12-28T23:14:42;10.4;
84432;DHT22;74658;51.736;7.038;2023-12-28T23:19:42;10.5;
84432;DHT22;74658;51.736;7.038;2023-12-28T23:24:43;10.5;
84432;DHT22;74658;51.736;7.038;2023-12-28T23:29:44;10.6;
84432;DHT22;74658;51.736;7.038;2023-12-28T23:34:44;10.6;
84432;DHT22;74658;51.736;7.038;2023-12-28T23:39:45;10.6;
84432;DHT22;74658;51.736;7.038;2023-12-28T23:44:46;10.6;
84432;DHT22;74658;51.736;7.038;2023-12-28T23:49:46;10.6;
84432;DHT22;74658;51.736;7.038;2023-12-28T23:54:47;10.7;
84432;DHT22;74658;51.736;7.038;2023-12-28T23:59:47;10.7;
